sensor_id;sensor_type;location;lat;lon;timestamp;P1;durP1;ratioP1;P2;durP2;ratioP2
22812;SDS011;11573;51.334;3.244;2022-09-09T00:01:10;15.73;;;8.43;;
22812;SDS011;11573;51.334;3.244;2022-09-09T00:03:54;20.17;;;8.13;;
22812;SDS011;11573;51.334;3.244;2022-09-09T00:06:31;15.75;;;8.57;;
22812;SDS011;11573;51.334;3.244;2022-09-09T00:11:50;16.20;;;8.05;;
22812;SDS011;11573;51.334;3.244;2022-09-09T00:14:25;15.65;;;7.70;;
22812;SDS011;11573;51.334;3.244;2022-09-09T00:17:01;13.48;;;7.70;;
22812;SDS011;11573;51.334;3.244;2022-09-09T00:22:23;11.57;;;7.20;;
22812;SDS011;11573;51.334;3.244;2022-09-09T00:24:53;14.82;;;7.43;;
22812;SDS011;11573;51.334;3.244;2022-09-09T00:30:17;15.43;;;7.47;;
22812;SDS011;11573;51.334;3.244;2022-09-09T00:33:08;15.02;;;8.88;;
22812;SDS011;11573;51.334;3.244;2022-09-09T00:35:44;17.98;;;7.88;;
22812;SDS011;11573;51.334;3.244;2022-09-09T00:38:14;12.50;;;7.30;;
22812;SDS011;11573;51.334;3.244;2022-09-09T00:43:32;15.60;;;7.40;;
22812;SDS011;11573;51.334;3.244;2022-09-09T00:46:14;17.55;;;6.90;;
22812;SDS011;11573;51.334;3.244;2022-09-09T00:59:51;17.17;;;5.90;;
22812;SDS011;11573;51.334;3.244;2022-09-09T01:02:31;13.95;;;6.15;;
22812;SDS011;11573;51.334;3.244;2022-09-09T01:08:00;15.13;;;6.18;;
22812;SDS011;11573;51.334;3.244;2022-09-09T01:10:31;12.77;;;5.30;;
22812;SDS011;11573;51.334;3.244;2022-09-09T01:13:41;8.32;;;5.30;;
22812;SDS011;11573;51.334;3.244;2022-09-09T01:16:08;13.63;;;5.70;;
22812;SDS011;11573;51.334;3.244;2022-09-09T01:18:40;11.70;;;5.10;;
22812;SDS011;11573;51.334;3.244;2022-09-09T01:27:18;10.55;;;5.22;;
22812;SDS011;11573;51.334;3.244;2022-09-09T01:29:48;10.77;;;4.78;;
22812;SDS011;11573;51.334;3.244;2022-09-09T01:38:18;10.90;;;4.45;;
22812;SDS011;11573;51.334;3.244;2022-09-09T01:40:48;10.38;;;4.72;;
22812;SDS011;11573;51.334;3.244;2022-09-09T01:43:21;9.63;;;4.00;;
22812;SDS011;11573;51.334;3.244;2022-09-09T01:45:50;11.73;;;4.22;;
22812;SDS011;11573;51.334;3.244;2022-09-09T01:48:21;9.45;;;4.30;;
22812;SDS011;11573;51.334;3.244;2022-09-09T01:50:59;10.57;;;4.35;;
22812;SDS011;11573;51.334;3.244;2022-09-09T01:53:26;9.77;;;4.60;;
22812;SDS011;11573;51.334;3.244;2022-09-09T01:58:47;12.55;;;4.50;;
22812;SDS011;11573;51.334;3.244;2022-09-09T02:07:35;10.55;;;4.20;;
22812;SDS011;11573;51.334;3.244;2022-09-09T02:10:28;14.23;;;4.63;;
22812;SDS011;11573;51.334;3.244;2022-09-09T02:13:16;7.82;;;3.95;;
22812;SDS011;11573;51.334;3.244;2022-09-09T02:15:56;8.27;;;3.50;;
22812;SDS011;11573;51.334;3.244;2022-09-09T02:18:26;10.25;;;3.97;;
22812;SDS011;11573;51.334;3.244;2022-09-09T02:20:56;9.63;;;3.60;;
22812;SDS011;11573;51.334;3.244;2022-09-09T02:23:25;8.52;;;3.95;;
22812;SDS011;11573;51.334;3.244;2022-09-09T02:25:54;10.05;;;3.42;;
22812;SDS011;11573;51.334;3.244;2022-09-09T02:28:25;8.57;;;3.85;;
22812;SDS011;11573;51.334;3.244;2022-09-09T02:30:54;12.20;;;3.75;;
22812;SDS011;11573;51.334;3.244;2022-09-09T02:33:30;7.95;;;3.40;;
22812;SDS011;11573;51.334;3.244;2022-09-09T02:36:04;13.35;;;3.67;;
22812;SDS011;11573;51.334;3.244;2022-09-09T02:38:35;10.02;;;3.03;;
22812;SDS011;11573;51.334;3.244;2022-09-09T02:41:13;12.27;;;3.35;;
22812;SDS011;11573;51.334;3.244;2022-09-09T02:43:40;15.20;;;3.92;;
22812;SDS011;11573;51.334;3.244;2022-09-09T02:48:47;8.48;;;2.70;;
22812;SDS011;11573;51.334;3.244;2022-09-09T02:56:46;13.00;;;3.00;;
22812;SDS011;11573;51.334;3.244;2022-09-09T02:59:21;5.45;;;2.40;;
22812;SDS011;11573;51.334;3.244;2022-09-09T03:01:52;13.40;;;3.45;;
22812;SDS011;11573;51.334;3.244;2022-09-09T03:04:20;12.07;;;2.95;;
22812;SDS011;11573;51.334;3.244;2022-09-09T03:06:47;10.27;;;3.22;;
22812;SDS011;11573;51.334;3.244;2022-09-09T03:09:18;9.00;;;3.20;;
22812;SDS011;11573;51.334;3.244;2022-09-09T03:11:45;13.20;;;3.50;;
22812;SDS011;11573;51.334;3.244;2022-09-09T03:14:15;10.73;;;3.08;;
22812;SDS011;11573;51.334;3.244;2022-09-09T03:16:44;12.85;;;3.50;;
22812;SDS011;11573;51.334;3.244;2022-09-09T03:19:11;11.13;;;3.10;;
22812;SDS011;11573;51.334;3.244;2022-09-09T03:21:37;11.73;;;3.55;;
22812;SDS011;11573;51.334;3.244;2022-09-09T03:24:05;9.52;;;3.15;;
22812;SDS011;11573;51.334;3.244;2022-09-09T03:26:33;13.55;;;3.50;;
22812;SDS011;11573;51.334;3.244;2022-09-09T03:28:59;12.75;;;3.83;;
22812;SDS011;11573;51.334;3.244;2022-09-09T03:31:28;17.13;;;4.20;;
22812;SDS011;11573;51.334;3.244;2022-09-09T03:33:57;14.52;;;3.92;;
22812;SDS011;11573;51.334;3.244;2022-09-09T03:36:26;16.60;;;3.95;;
22812;SDS011;11573;51.334;3.244;2022-09-09T03:38:54;13.05;;;3.63;;
22812;SDS011;11573;51.334;3.244;2022-09-09T03:41:24;20.67;;;4.03;;
22812;SDS011;11573;51.334;3.244;2022-09-09T03:43:53;16.27;;;4.22;;
22812;SDS011;11573;51.334;3.244;2022-09-09T03:46:23;13.43;;;3.83;;
22812;SDS011;11573;51.334;3.244;2022-09-09T03:48:54;9.88;;;3.10;;
22812;SDS011;11573;51.334;3.244;2022-09-09T03:51:21;14.43;;;4.07;;
22812;SDS011;11573;51.334;3.244;2022-09-09T03:53:49;15.57;;;3.92;;
22812;SDS011;11573;51.334;3.244;2022-09-09T03:56:16;11.32;;;3.97;;
22812;SDS011;11573;51.334;3.244;2022-09-09T03:58:44;13.95;;;4.35;;
22812;SDS011;11573;51.334;3.244;2022-09-09T04:01:12;13.98;;;4.38;;
22812;SDS011;11573;51.334;3.244;2022-09-09T04:03:42;13.65;;;3.80;;
22812;SDS011;11573;51.334;3.244;2022-09-09T04:06:09;11.93;;;4.35;;
22812;SDS011;11573;51.334;3.244;2022-09-09T04:08:40;16.90;;;4.28;;
22812;SDS011;11573;51.334;3.244;2022-09-09T04:11:09;15.82;;;4.32;;
22812;SDS011;11573;51.334;3.244;2022-09-09T04:13:37;9.63;;;4.93;;
22812;SDS011;11573;51.334;3.244;2022-09-09T04:16:09;13.45;;;4.25;;
22812;SDS011;11573;51.334;3.244;2022-09-09T04:18:37;16.23;;;5.00;;
22812;SDS011;11573;51.334;3.244;2022-09-09T04:21:06;14.10;;;4.38;;
22812;SDS011;11573;51.334;3.244;2022-09-09T04:23:34;10.98;;;4.60;;
22812;SDS011;11573;51.334;3.244;2022-09-09T04:26:03;14.70;;;4.28;;
22812;SDS011;11573;51.334;3.244;2022-09-09T04:28:33;19.20;;;5.07;;
22812;SDS011;11573;51.334;3.244;2022-09-09T04:31:05;12.63;;;4.53;;
22812;SDS011;11573;51.334;3.244;2022-09-09T04:33:39;17.35;;;5.30;;
22812;SDS011;11573;51.334;3.244;2022-09-09T04:36:08;14.57;;;4.90;;
22812;SDS011;11573;51.334;3.244;2022-09-09T04:38:35;16.52;;;4.80;;
22812;SDS011;11573;51.334;3.244;2022-09-09T04:41:03;15.38;;;4.32;;
22812;SDS011;11573;51.334;3.244;2022-09-09T04:43:33;17.38;;;5.50;;
22812;SDS011;11573;51.334;3.244;2022-09-09T04:46:02;12.95;;;4.68;;
22812;SDS011;11573;51.334;3.244;2022-09-09T04:48:30;13.40;;;4.60;;
22812;SDS011;11573;51.334;3.244;2022-09-09T04:50:59;19.00;;;5.35;;
22812;SDS011;11573;51.334;3.244;2022-09-09T04:53:29;19.52;;;4.68;;
22812;SDS011;11573;51.334;3.244;2022-09-09T04:58:42;15.23;;;4.80;;
22812;SDS011;11573;51.334;3.244;2022-09-09T05:01:10;14.65;;;4.65;;
22812;SDS011;11573;51.334;3.244;2022-09-09T05:03:41;16.67;;;5.40;;
22812;SDS011;11573;51.334;3.244;2022-09-09T05:06:12;20.35;;;5.72;;
22812;SDS011;11573;51.334;3.244;2022-09-09T05:08:47;17.33;;;4.75;;
22812;SDS011;11573;51.334;3.244;2022-09-09T05:11:23;15.68;;;4.80;;
22812;SDS011;11573;51.334;3.244;2022-09-09T05:13:59;20.10;;;4.90;;
22812;SDS011;11573;51.334;3.244;2022-09-09T05:16:28;17.50;;;4.82;;
22812;SDS011;11573;51.334;3.244;2022-09-09T05:18:56;18.17;;;5.22;;
22812;SDS011;11573;51.334;3.244;2022-09-09T05:21:24;19.80;;;4.78;;
22812;SDS011;11573;51.334;3.244;2022-09-09T05:23:53;14.60;;;4.60;;
22812;SDS011;11573;51.334;3.244;2022-09-09T05:26:21;16.63;;;4.72;;
22812;SDS011;11573;51.334;3.244;2022-09-09T05:28:51;17.95;;;4.43;;
22812;SDS011;11573;51.334;3.244;2022-09-09T05:31:18;15.68;;;4.50;;
22812;SDS011;11573;51.334;3.244;2022-09-09T05:33:48;14.15;;;4.70;;
22812;SDS011;11573;51.334;3.244;2022-09-09T05:36:17;17.30;;;4.88;;
22812;SDS011;11573;51.334;3.244;2022-09-09T05:38:48;18.08;;;4.35;;
22812;SDS011;11573;51.334;3.244;2022-09-09T05:41:16;19.35;;;4.50;;
22812;SDS011;11573;51.334;3.244;2022-09-09T05:43:45;18.42;;;4.45;;
22812;SDS011;11573;51.334;3.244;2022-09-09T05:46:29;13.48;;;4.18;;
22812;SDS011;11573;51.334;3.244;2022-09-09T05:48:56;15.52;;;4.60;;
22812;SDS011;11573;51.334;3.244;2022-09-09T05:51:29;14.57;;;4.00;;
22812;SDS011;11573;51.334;3.244;2022-09-09T05:54:00;14.85;;;4.30;;
22812;SDS011;11573;51.334;3.244;2022-09-09T05:56:31;11.43;;;3.45;;
22812;SDS011;11573;51.334;3.244;2022-09-09T05:58:59;17.27;;;4.53;;
22812;SDS011;11573;51.334;3.244;2022-09-09T06:01:31;13.07;;;4.18;;
22812;SDS011;11573;51.334;3.244;2022-09-09T06:04:01;15.40;;;4.25;;
22812;SDS011;11573;51.334;3.244;2022-09-09T06:06:33;15.38;;;4.63;;
22812;SDS011;11573;51.334;3.244;2022-09-09T06:09:08;13.18;;;4.18;;
22812;SDS011;11573;51.334;3.244;2022-09-09T06:11:40;16.95;;;4.30;;
22812;SDS011;11573;51.334;3.244;2022-09-09T06:16:52;11.00;;;4.38;;
22812;SDS011;11573;51.334;3.244;2022-09-09T06:19:21;15.57;;;4.30;;
22812;SDS011;11573;51.334;3.244;2022-09-09T06:21:50;15.10;;;4.03;;
22812;SDS011;11573;51.334;3.244;2022-09-09T06:24:17;13.93;;;4.18;;
22812;SDS011;11573;51.334;3.244;2022-09-09T06:26:45;13.75;;;3.38;;
22812;SDS011;11573;51.334;3.244;2022-09-09T06:29:18;15.15;;;3.13;;
22812;SDS011;11573;51.334;3.244;2022-09-09T06:31:45;15.50;;;3.50;;
22812;SDS011;11573;51.334;3.244;2022-09-09T06:34:19;12.45;;;3.22;;
22812;SDS011;11573;51.334;3.244;2022-09-09T06:36:50;12.25;;;3.40;;
22812;SDS011;11573;51.334;3.244;2022-09-09T06:39:18;13.93;;;3.55;;
22812;SDS011;11573;51.334;3.244;2022-09-09T06:41:45;11.40;;;3.85;;
22812;SDS011;11573;51.334;3.244;2022-09-09T06:44:33;14.43;;;3.70;;
22812;SDS011;11573;51.334;3.244;2022-09-09T06:47:02;18.40;;;3.88;;
22812;SDS011;11573;51.334;3.244;2022-09-09T06:49:31;15.50;;;3.80;;
22812;SDS011;11573;51.334;3.244;2022-09-09T06:51:59;15.55;;;3.75;;
22812;SDS011;11573;51.334;3.244;2022-09-09T06:54:27;14.45;;;3.92;;
22812;SDS011;11573;51.334;3.244;2022-09-09T06:56:55;11.52;;;3.95;;
22812;SDS011;11573;51.334;3.244;2022-09-09T06:59:23;19.73;;;4.22;;
22812;SDS011;11573;51.334;3.244;2022-09-09T07:01:53;15.95;;;4.32;;
22812;SDS011;11573;51.334;3.244;2022-09-09T07:04:22;14.80;;;4.30;;
22812;SDS011;11573;51.334;3.244;2022-09-09T07:06:50;15.70;;;4.53;;
22812;SDS011;11573;51.334;3.244;2022-09-09T07:09:23;19.15;;;4.65;;
22812;SDS011;11573;51.334;3.244;2022-09-09T07:11:52;13.32;;;4.45;;
22812;SDS011;11573;51.334;3.244;2022-09-09T07:14:30;13.98;;;4.22;;
22812;SDS011;11573;51.334;3.244;2022-09-09T07:16:59;11.75;;;4.50;;
22812;SDS011;11573;51.334;3.244;2022-09-09T07:19:32;22.33;;;4.90;;
22812;SDS011;11573;51.334;3.244;2022-09-09T07:22:01;13.10;;;4.90;;
22812;SDS011;11573;51.334;3.244;2022-09-09T07:24:31;14.73;;;4.28;;
22812;SDS011;11573;51.334;3.244;2022-09-09T07:26:57;12.98;;;3.83;;
22812;SDS011;11573;51.334;3.244;2022-09-09T07:29:26;13.90;;;4.20;;
22812;SDS011;11573;51.334;3.244;2022-09-09T07:31:53;17.17;;;4.05;;
22812;SDS011;11573;51.334;3.244;2022-09-09T07:34:25;15.48;;;4.18;;
22812;SDS011;11573;51.334;3.244;2022-09-09T07:36:52;14.57;;;4.85;;
22812;SDS011;11573;51.334;3.244;2022-09-09T07:39:19;15.18;;;3.72;;
22812;SDS011;11573;51.334;3.244;2022-09-09T07:41:50;12.32;;;3.55;;
22812;SDS011;11573;51.334;3.244;2022-09-09T07:44:21;11.15;;;4.03;;
22812;SDS011;11573;51.334;3.244;2022-09-09T07:47:08;15.57;;;5.70;;
22812;SDS011;11573;51.334;3.244;2022-09-09T07:49:41;22.27;;;8.15;;
22812;SDS011;11573;51.334;3.244;2022-09-09T07:52:08;26.20;;;9.82;;
22812;SDS011;11573;51.334;3.244;2022-09-09T07:54:40;17.67;;;6.10;;
22812;SDS011;11573;51.334;3.244;2022-09-09T07:57:09;19.95;;;6.45;;
22812;SDS011;11573;51.334;3.244;2022-09-09T07:59:36;20.23;;;6.05;;
22812;SDS011;11573;51.334;3.244;2022-09-09T08:02:04;15.27;;;4.60;;
22812;SDS011;11573;51.334;3.244;2022-09-09T08:04:33;14.60;;;4.57;;
22812;SDS011;11573;51.334;3.244;2022-09-09T08:07:02;13.77;;;4.03;;
22812;SDS011;11573;51.334;3.244;2022-09-09T08:09:34;15.00;;;3.80;;
22812;SDS011;11573;51.334;3.244;2022-09-09T08:12:10;9.00;;;3.10;;
22812;SDS011;11573;51.334;3.244;2022-09-09T08:14:39;10.45;;;3.83;;
22812;SDS011;11573;51.334;3.244;2022-09-09T08:17:06;9.25;;;2.92;;
22812;SDS011;11573;51.334;3.244;2022-09-09T08:19:33;9.57;;;3.15;;
22812;SDS011;11573;51.334;3.244;2022-09-09T08:22:06;9.82;;;3.58;;
22812;SDS011;11573;51.334;3.244;2022-09-09T08:24:36;8.45;;;3.72;;
22812;SDS011;11573;51.334;3.244;2022-09-09T08:27:04;7.30;;;3.40;;
22812;SDS011;11573;51.334;3.244;2022-09-09T08:29:31;9.38;;;3.60;;
22812;SDS011;11573;51.334;3.244;2022-09-09T08:31:59;11.95;;;3.85;;
22812;SDS011;11573;51.334;3.244;2022-09-09T08:34:27;9.43;;;3.78;;
22812;SDS011;11573;51.334;3.244;2022-09-09T08:36:57;15.07;;;5.45;;
22812;SDS011;11573;51.334;3.244;2022-09-09T08:39:31;12.52;;;4.88;;
22812;SDS011;11573;51.334;3.244;2022-09-09T08:55:25;14.93;;;3.97;;
22812;SDS011;11573;51.334;3.244;2022-09-09T08:58:22;8.15;;;3.10;;
22812;SDS011;11573;51.334;3.244;2022-09-09T09:04:21;5.10;;;2.42;;
22812;SDS011;11573;51.334;3.244;2022-09-09T09:07:08;7.30;;;3.40;;
22812;SDS011;11573;51.334;3.244;2022-09-09T09:09:52;13.75;;;3.78;;
22812;SDS011;11573;51.334;3.244;2022-09-09T09:12:27;6.72;;;3.30;;
22812;SDS011;11573;51.334;3.244;2022-09-09T09:15:00;12.10;;;3.38;;
22812;SDS011;11573;51.334;3.244;2022-09-09T09:17:28;6.43;;;2.85;;
22812;SDS011;11573;51.334;3.244;2022-09-09T09:19:59;5.97;;;2.67;;
22812;SDS011;11573;51.334;3.244;2022-09-09T09:25:13;7.38;;;2.80;;
22812;SDS011;11573;51.334;3.244;2022-09-09T09:27:52;9.07;;;2.75;;
22812;SDS011;11573;51.334;3.244;2022-09-09T09:30:39;9.10;;;2.40;;
22812;SDS011;11573;51.334;3.244;2022-09-09T09:33:15;8.02;;;2.40;;
22812;SDS011;11573;51.334;3.244;2022-09-09T09:35:48;6.75;;;2.65;;
22812;SDS011;11573;51.334;3.244;2022-09-09T09:38:20;7.28;;;2.70;;
22812;SDS011;11573;51.334;3.244;2022-09-09T09:41:11;10.00;;;2.83;;
22812;SDS011;11573;51.334;3.244;2022-09-09T09:43:40;6.07;;;2.63;;
22812;SDS011;11573;51.334;3.244;2022-09-09T09:46:20;12.43;;;3.55;;
22812;SDS011;11573;51.334;3.244;2022-09-09T09:48:57;9.23;;;3.72;;
22812;SDS011;11573;51.334;3.244;2022-09-09T09:51:31;9.82;;;3.75;;
22812;SDS011;11573;51.334;3.244;2022-09-09T09:54:42;11.07;;;3.67;;
22812;SDS011;11573;51.334;3.244;2022-09-09T09:57:09;10.23;;;3.58;;
22812;SDS011;11573;51.334;3.244;2022-09-09T09:59:43;9.40;;;3.33;;
22812;SDS011;11573;51.334;3.244;2022-09-09T10:02:20;9.30;;;3.65;;
22812;SDS011;11573;51.334;3.244;2022-09-09T10:05:06;7.47;;;3.35;;
22812;SDS011;11573;51.334;3.244;2022-09-09T10:08:08;8.93;;;4.05;;
22812;SDS011;11573;51.334;3.244;2022-09-09T10:13:29;12.23;;;3.50;;
22812;SDS011;11573;51.334;3.244;2022-09-09T10:19:29;9.77;;;3.22;;
22812;SDS011;11573;51.334;3.244;2022-09-09T10:33:31;7.00;;;3.05;;
22812;SDS011;11573;51.334;3.244;2022-09-09T10:38:48;9.05;;;2.95;;
22812;SDS011;11573;51.334;3.244;2022-09-09T10:44:29;5.72;;;2.97;;
22812;SDS011;11573;51.334;3.244;2022-09-09T10:55:37;9.45;;;3.47;;
22812;SDS011;11573;51.334;3.244;2022-09-09T10:58:10;10.23;;;4.13;;
22812;SDS011;11573;51.334;3.244;2022-09-09T11:00:47;14.30;;;4.43;;
22812;SDS011;11573;51.334;3.244;2022-09-09T11:03:28;10.18;;;3.70;;
22812;SDS011;11573;51.334;3.244;2022-09-09T11:06:05;10.65;;;3.33;;
22812;SDS011;11573;51.334;3.244;2022-09-09T11:08:39;6.47;;;2.85;;
22812;SDS011;11573;51.334;3.244;2022-09-09T11:11:09;9.95;;;3.35;;
22812;SDS011;11573;51.334;3.244;2022-09-09T11:22:03;14.60;;;3.03;;
22812;SDS011;11573;51.334;3.244;2022-09-09T11:24:55;9.27;;;2.47;;
22812;SDS011;11573;51.334;3.244;2022-09-09T11:27:51;12.30;;;2.88;;
22812;SDS011;11573;51.334;3.244;2022-09-09T11:30:20;9.75;;;2.42;;
22812;SDS011;11573;51.334;3.244;2022-09-09T11:39:01;12.27;;;2.67;;
22812;SDS011;11573;51.334;3.244;2022-09-09T11:41:48;14.40;;;3.03;;
22812;SDS011;11573;51.334;3.244;2022-09-09T11:44:19;7.75;;;2.25;;
22812;SDS011;11573;51.334;3.244;2022-09-09T11:52:51;11.88;;;3.05;;
22812;SDS011;11573;51.334;3.244;2022-09-09T12:05:21;24.17;;;5.07;;
22812;SDS011;11573;51.334;3.244;2022-09-09T12:30:14;6.35;;;2.90;;
22812;SDS011;11573;51.334;3.244;2022-09-09T12:32:42;11.97;;;3.10;;
22812;SDS011;11573;51.334;3.244;2022-09-09T12:35:11;9.20;;;2.65;;
22812;SDS011;11573;51.334;3.244;2022-09-09T12:37:50;12.80;;;3.10;;
22812;SDS011;11573;51.334;3.244;2022-09-09T12:40:24;8.02;;;2.65;;
22812;SDS011;11573;51.334;3.244;2022-09-09T12:42:51;10.15;;;2.47;;
22812;SDS011;11573;51.334;3.244;2022-09-09T12:45:19;8.85;;;2.63;;
22812;SDS011;11573;51.334;3.244;2022-09-09T12:52:52;6.57;;;1.90;;
22812;SDS011;11573;51.334;3.244;2022-09-09T12:55:27;8.02;;;2.28;;
22812;SDS011;11573;51.334;3.244;2022-09-09T12:57:56;10.60;;;2.60;;
22812;SDS011;11573;51.334;3.244;2022-09-09T13:00:26;14.27;;;3.30;;
22812;SDS011;11573;51.334;3.244;2022-09-09T13:02:54;11.52;;;2.92;;
22812;SDS011;11573;51.334;3.244;2022-09-09T13:05:24;11.05;;;2.83;;
22812;SDS011;11573;51.334;3.244;2022-09-09T13:08:10;11.80;;;3.03;;
22812;SDS011;11573;51.334;3.244;2022-09-09T13:13:38;7.00;;;2.72;;
22812;SDS011;11573;51.334;3.244;2022-09-09T13:16:18;10.63;;;2.90;;
22812;SDS011;11573;51.334;3.244;2022-09-09T13:21:40;23.05;;;4.25;;
22812;SDS011;11573;51.334;3.244;2022-09-09T13:24:23;15.60;;;3.40;;
22812;SDS011;11573;51.334;3.244;2022-09-09T13:26:56;11.73;;;3.15;;
22812;SDS011;11573;51.334;3.244;2022-09-09T13:29:24;8.85;;;2.90;;
22812;SDS011;11573;51.334;3.244;2022-09-09T13:31:51;11.38;;;3.05;;
22812;SDS011;11573;51.334;3.244;2022-09-09T13:36:55;15.25;;;2.65;;
22812;SDS011;11573;51.334;3.244;2022-09-09T13:39:50;17.55;;;3.45;;
22812;SDS011;11573;51.334;3.244;2022-09-09T13:42:29;10.73;;;3.10;;
22812;SDS011;11573;51.334;3.244;2022-09-09T13:44:58;13.73;;;2.95;;
22812;SDS011;11573;51.334;3.244;2022-09-09T13:47:34;7.07;;;2.63;;
22812;SDS011;11573;51.334;3.244;2022-09-09T13:53:06;12.88;;;3.42;;
22812;SDS011;11573;51.334;3.244;2022-09-09T13:55:33;12.40;;;3.60;;
22812;SDS011;11573;51.334;3.244;2022-09-09T13:58:03;12.82;;;3.78;;
22812;SDS011;11573;51.334;3.244;2022-09-09T14:00:33;20.52;;;4.55;;
22812;SDS011;11573;51.334;3.244;2022-09-09T14:03:00;18.10;;;4.13;;
22812;SDS011;11573;51.334;3.244;2022-09-09T14:05:29;15.23;;;3.75;;
22812;SDS011;11573;51.334;3.244;2022-09-09T14:07:59;11.07;;;3.45;;
22812;SDS011;11573;51.334;3.244;2022-09-09T14:10:29;15.30;;;4.32;;
22812;SDS011;11573;51.334;3.244;2022-09-09T14:12:56;19.20;;;3.83;;
22812;SDS011;11573;51.334;3.244;2022-09-09T14:15:23;14.48;;;3.47;;
22812;SDS011;11573;51.334;3.244;2022-09-09T14:18:00;10.25;;;3.28;;
22812;SDS011;11573;51.334;3.244;2022-09-09T14:20:27;9.65;;;3.00;;
22812;SDS011;11573;51.334;3.244;2022-09-09T14:22:53;8.15;;;2.80;;
22812;SDS011;11573;51.334;3.244;2022-09-09T14:25:20;11.07;;;3.10;;
22812;SDS011;11573;51.334;3.244;2022-09-09T14:27:47;11.57;;;3.17;;
22812;SDS011;11573;51.334;3.244;2022-09-09T14:30:14;12.15;;;3.85;;
22812;SDS011;11573;51.334;3.244;2022-09-09T14:32:41;14.77;;;3.30;;
22812;SDS011;11573;51.334;3.244;2022-09-09T14:35:08;16.00;;;3.80;;
22812;SDS011;11573;51.334;3.244;2022-09-09T14:37:35;15.63;;;3.58;;
22812;SDS011;11573;51.334;3.244;2022-09-09T14:40:02;12.65;;;3.60;;
22812;SDS011;11573;51.334;3.244;2022-09-09T14:42:29;12.23;;;3.35;;
22812;SDS011;11573;51.334;3.244;2022-09-09T14:44:56;7.93;;;2.80;;
22812;SDS011;11573;51.334;3.244;2022-09-09T14:47:23;8.13;;;2.88;;
22812;SDS011;11573;51.334;3.244;2022-09-09T14:49:50;8.43;;;3.25;;
22812;SDS011;11573;51.334;3.244;2022-09-09T14:52:17;10.40;;;3.42;;
22812;SDS011;11573;51.334;3.244;2022-09-09T14:54:44;9.13;;;3.40;;
22812;SDS011;11573;51.334;3.244;2022-09-09T14:57:11;10.05;;;3.42;;
22812;SDS011;11573;51.334;3.244;2022-09-09T14:59:37;10.38;;;3.20;;
22812;SDS011;11573;51.334;3.244;2022-09-09T15:02:04;7.55;;;2.90;;
22812;SDS011;11573;51.334;3.244;2022-09-09T15:04:32;7.10;;;3.17;;
22812;SDS011;11573;51.334;3.244;2022-09-09T15:06:59;14.63;;;3.50;;
22812;SDS011;11573;51.334;3.244;2022-09-09T15:09:25;12.40;;;3.28;;
22812;SDS011;11573;51.334;3.244;2022-09-09T15:11:52;10.57;;;3.28;;
22812;SDS011;11573;51.334;3.244;2022-09-09T15:14:19;10.75;;;2.95;;
22812;SDS011;11573;51.334;3.244;2022-09-09T15:16:55;11.80;;;2.60;;
22812;SDS011;11573;51.334;3.244;2022-09-09T15:19:21;6.78;;;2.03;;
22812;SDS011;11573;51.334;3.244;2022-09-09T15:21:48;7.00;;;2.30;;
22812;SDS011;11573;51.334;3.244;2022-09-09T15:24:15;13.18;;;2.50;;
22812;SDS011;11573;51.334;3.244;2022-09-09T15:26:43;10.13;;;3.42;;
22812;SDS011;11573;51.334;3.244;2022-09-09T15:29:10;7.20;;;2.53;;
22812;SDS011;11573;51.334;3.244;2022-09-09T15:31:37;9.90;;;3.20;;
22812;SDS011;11573;51.334;3.244;2022-09-09T15:34:04;16.73;;;3.33;;
22812;SDS011;11573;51.334;3.244;2022-09-09T15:36:37;8.07;;;3.13;;
22812;SDS011;11573;51.334;3.244;2022-09-09T15:39:06;9.80;;;2.92;;
22812;SDS011;11573;51.334;3.244;2022-09-09T15:41:38;6.50;;;2.67;;
22812;SDS011;11573;51.334;3.244;2022-09-09T15:44:06;9.23;;;3.17;;
22812;SDS011;11573;51.334;3.244;2022-09-09T15:46:33;15.75;;;4.03;;
22812;SDS011;11573;51.334;3.244;2022-09-09T15:49:06;13.80;;;4.03;;
22812;SDS011;11573;51.334;3.244;2022-09-09T15:51:37;11.43;;;4.63;;
22812;SDS011;11573;51.334;3.244;2022-09-09T15:54:10;15.95;;;4.38;;
22812;SDS011;11573;51.334;3.244;2022-09-09T15:56:40;10.57;;;4.43;;
22812;SDS011;11573;51.334;3.244;2022-09-09T15:59:07;13.85;;;3.95;;
22812;SDS011;11573;51.334;3.244;2022-09-09T16:01:34;14.63;;;5.05;;
22812;SDS011;11573;51.334;3.244;2022-09-09T16:04:02;15.73;;;4.55;;
22812;SDS011;11573;51.334;3.244;2022-09-09T16:06:30;12.02;;;4.25;;
22812;SDS011;11573;51.334;3.244;2022-09-09T16:08:57;9.07;;;4.00;;
22812;SDS011;11573;51.334;3.244;2022-09-09T16:11:28;14.73;;;4.13;;
22812;SDS011;11573;51.334;3.244;2022-09-09T16:13:58;16.55;;;4.57;;
22812;SDS011;11573;51.334;3.244;2022-09-09T16:16:27;19.00;;;4.57;;
22812;SDS011;11573;51.334;3.244;2022-09-09T16:18:56;15.40;;;4.30;;
22812;SDS011;11573;51.334;3.244;2022-09-09T16:21:26;25.77;;;4.72;;
22812;SDS011;11573;51.334;3.244;2022-09-09T16:23:59;14.63;;;3.58;;
22812;SDS011;11573;51.334;3.244;2022-09-09T16:26:27;22.08;;;4.38;;
22812;SDS011;11573;51.334;3.244;2022-09-09T16:28:57;21.02;;;4.13;;
22812;SDS011;11573;51.334;3.244;2022-09-09T16:31:27;16.13;;;4.30;;
22812;SDS011;11573;51.334;3.244;2022-09-09T16:33:56;24.00;;;4.00;;
22812;SDS011;11573;51.334;3.244;2022-09-09T16:36:25;17.23;;;4.18;;
22812;SDS011;11573;51.334;3.244;2022-09-09T16:38:54;23.10;;;5.53;;
22812;SDS011;11573;51.334;3.244;2022-09-09T16:41:24;26.75;;;4.88;;
22812;SDS011;11573;51.334;3.244;2022-09-09T16:43:58;18.63;;;5.20;;
22812;SDS011;11573;51.334;3.244;2022-09-09T16:46:34;15.23;;;4.90;;
22812;SDS011;11573;51.334;3.244;2022-09-09T16:49:03;20.05;;;4.90;;
22812;SDS011;11573;51.334;3.244;2022-09-09T16:51:39;18.00;;;5.03;;
22812;SDS011;11573;51.334;3.244;2022-09-09T16:56:58;28.80;;;5.53;;
22812;SDS011;11573;51.334;3.244;2022-09-09T16:59:25;25.35;;;5.43;;
22812;SDS011;11573;51.334;3.244;2022-09-09T17:01:52;29.42;;;5.57;;
22812;SDS011;11573;51.334;3.244;2022-09-09T17:04:21;23.55;;;5.68;;
22812;SDS011;11573;51.334;3.244;2022-09-09T17:06:52;33.65;;;6.88;;
22812;SDS011;11573;51.334;3.244;2022-09-09T17:09:21;26.95;;;6.13;;
22812;SDS011;11573;51.334;3.244;2022-09-09T17:11:49;31.95;;;6.32;;
22812;SDS011;11573;51.334;3.244;2022-09-09T17:14:18;23.50;;;5.82;;
22812;SDS011;11573;51.334;3.244;2022-09-09T17:16:47;13.50;;;3.83;;
22812;SDS011;11573;51.334;3.244;2022-09-09T17:19:14;15.55;;;4.07;;
22812;SDS011;11573;51.334;3.244;2022-09-09T17:21:42;13.95;;;3.42;;
22812;SDS011;11573;51.334;3.244;2022-09-09T17:24:29;13.05;;;3.17;;
22812;SDS011;11573;51.334;3.244;2022-09-09T17:26:56;14.05;;;3.47;;
22812;SDS011;11573;51.334;3.244;2022-09-09T17:29:23;17.13;;;3.83;;
22812;SDS011;11573;51.334;3.244;2022-09-09T17:31:51;7.82;;;2.95;;
22812;SDS011;11573;51.334;3.244;2022-09-09T17:34:18;10.82;;;2.72;;
22812;SDS011;11573;51.334;3.244;2022-09-09T17:36:45;12.55;;;2.90;;
22812;SDS011;11573;51.334;3.244;2022-09-09T17:39:12;16.45;;;3.03;;
22812;SDS011;11573;51.334;3.244;2022-09-09T17:41:39;9.68;;;2.92;;
22812;SDS011;11573;51.334;3.244;2022-09-09T17:44:07;15.45;;;2.72;;
22812;SDS011;11573;51.334;3.244;2022-09-09T17:46:37;14.07;;;2.92;;
22812;SDS011;11573;51.334;3.244;2022-09-09T17:49:16;9.02;;;2.47;;
22812;SDS011;11573;51.334;3.244;2022-09-09T17:51:44;10.25;;;2.50;;
22812;SDS011;11573;51.334;3.244;2022-09-09T17:54:20;12.55;;;2.80;;
22812;SDS011;11573;51.334;3.244;2022-09-09T17:56:47;11.60;;;3.22;;
22812;SDS011;11573;51.334;3.244;2022-09-09T17:59:15;10.88;;;3.10;;
22812;SDS011;11573;51.334;3.244;2022-09-09T18:01:44;16.67;;;3.22;;
22812;SDS011;11573;51.334;3.244;2022-09-09T18:04:13;14.75;;;2.72;;
22812;SDS011;11573;51.334;3.244;2022-09-09T18:06:43;10.23;;;2.85;;